createdAt,value
2023-04-02T00:01:26.454Z,100040.81
2023-04-02T00:06:27.959Z,100061.34
2023-04-02T00:11:42.380Z,100066.00
2023-04-02T00:16:45.301Z,100068.88
2023-04-02T00:21:47.900Z,100076.31
2023-04-02T00:26:57.452Z,100088.19
2023-04-02T00:32:00.016Z,100101.09
2023-04-02T00:37:02.539Z,100108.13
2023-04-02T00:42:04.476Z,100114.78
2023-04-02T00:47:26.902Z,100116.41
2023-04-02T00:52:32.296Z,100126.06
2023-04-02T00:57:34.822Z,100132.72
2023-04-02T01:02:38.382Z,100145.81
2023-04-02T01:08:02.124Z,100144.41
2023-04-02T01:13:19.008Z,100157.91
2023-04-02T01:18:32.813Z,100159.16
2023-04-02T01:24:04.386Z,100165.03
2023-04-02T01:29:08.975Z,100174.69
2023-04-02T01:34:15.446Z,100187.22
2023-04-02T01:39:35.483Z,100190.22
2023-04-02T01:44:46.310Z,100200.13
2023-04-02T01:49:48.772Z,100211.44
2023-04-02T01:54:51.710Z,100221.34
2023-04-02T01:59:54.222Z,100233.25
2023-04-02T02:04:55.980Z,100240.34
2023-04-02T02:09:58.076Z,100246.91
2023-04-02T02:15:00.622Z,100261.84
2023-04-02T02:20:03.152Z,100272.72
2023-04-02T02:25:12.063Z,100281.94
2023-04-02T02:30:41.856Z,100293.25
2023-04-02T02:35:55.881Z,100306.78
2023-04-02T02:41:25.996Z,100320.75
2023-04-02T02:46:32.414Z,100336.59
2023-04-02T02:51:46.389Z,100341.69
2023-04-02T02:57:07.359Z,100346.38
2023-04-02T03:02:10.150Z,100361.88
2023-04-02T03:07:13.562Z,100367.13
2023-04-02T03:12:33.882Z,100375.25
2023-04-02T03:18:02.386Z,100387.88
2023-04-02T03:23:15.349Z,100394.41
2023-04-02T03:28:22.797Z,100404.13
2023-04-02T03:33:31.427Z,100417.28
2023-04-02T03:38:43.840Z,100424.69
2023-04-02T03:43:58.004Z,100442.00
2023-04-02T03:49:10.269Z,100443.50
2023-04-02T03:54:16.124Z,100453.41
2023-04-02T03:59:25.055Z,100457.94
2023-04-02T04:04:31.219Z,100472.69
2023-04-02T04:09:37.670Z,100489.13
2023-04-02T04:14:46.595Z,100497.53
2023-04-02T04:19:54.821Z,100508.09
2023-04-02T04:25:06.348Z,100522.66
2023-04-02T04:30:34.471Z,100538.78
2023-04-02T04:35:46.917Z,100545.41
2023-04-02T04:41:10.824Z,100555.16
2023-04-02T04:46:16.260Z,100571.06
2023-04-02T04:51:26.157Z,100583.31
2023-04-02T04:56:32.316Z,100592.84
2023-04-02T05:01:53.189Z,100605.75
2023-04-02T05:07:25.529Z,100617.84
2023-04-02T05:12:31.613Z,100635.81
2023-04-02T05:17:42.003Z,100641.03
2023-04-02T05:23:05.791Z,100654.78
2023-04-02T05:28:15.576Z,100659.69
2023-04-02T05:33:24.024Z,100675.84
2023-04-02T05:38:30.352Z,100683.22
2023-04-02T05:43:34.626Z,100697.41
2023-04-02T05:48:41.517Z,100701.66
2023-04-02T05:54:00.369Z,100718.63
2023-04-02T05:59:23.483Z,100741.16
2023-04-02T06:04:38.369Z,100747.31
2023-04-02T06:09:50.593Z,100756.81
2023-04-02T06:14:52.699Z,100767.06
2023-04-02T06:19:58.535Z,100783.53
2023-04-02T06:25:19.447Z,100799.53
2023-04-02T06:30:32.841Z,100812.34
2023-04-02T06:35:39.669Z,100821.53
2023-04-02T06:40:49.693Z,100829.81
2023-04-02T06:46:32.580Z,100843.34
2023-04-02T06:51:41.508Z,100851.31
2023-04-02T06:56:53.641Z,100874.28
2023-04-02T07:02:14.593Z,100884.09
2023-04-02T07:07:16.719Z,100897.97
2023-04-02T07:12:26.414Z,100912.88
2023-04-02T07:17:29.061Z,100925.88
2023-04-02T07:22:31.004Z,100935.69
2023-04-02T07:27:35.922Z,100944.69
2023-04-02T07:32:37.645Z,100964.00
2023-04-02T07:37:39.609Z,100962.72
2023-04-02T07:42:42.009Z,100969.22
2023-04-02T07:47:44.864Z,100989.75
2023-04-02T07:52:46.502Z,101006.47
2023-04-02T07:57:49.575Z,101008.47
2023-04-02T08:02:51.649Z,101016.38
2023-04-02T08:07:55.126Z,101024.63
2023-04-02T08:12:56.948Z,101040.13
2023-04-02T08:17:58.714Z,101059.41
2023-04-02T08:23:00.780Z,101061.69
2023-04-02T08:28:02.439Z,101081.50
2023-04-02T08:33:04.309Z,101096.13
2023-04-02T08:38:06.162Z,101101.06
2023-04-02T08:43:27.541Z,101112.34
2023-04-02T08:48:32.693Z,101129.00
2023-04-02T08:53:38.917Z,101135.53
2023-04-02T08:58:46.737Z,101143.75
2023-04-02T09:03:50.560Z,101164.44
2023-04-02T09:08:54.187Z,101169.81
2023-04-02T09:13:58.130Z,101177.59
2023-04-02T09:19:00.702Z,101178.59
2023-04-02T09:24:04.118Z,101193.47
2023-04-02T09:29:13.022Z,101204.09
2023-04-02T09:34:35.240Z,101213.22
2023-04-02T09:39:37.239Z,101229.72
2023-04-02T09:44:39.047Z,101229.47
2023-04-02T09:49:40.978Z,101250.63
2023-04-02T09:54:42.761Z,101256.84
2023-04-02T09:59:44.453Z,101266.22
2023-04-02T10:04:49.199Z,101284.00
2023-04-02T10:09:58.979Z,101295.59
2023-04-02T10:15:03.077Z,101298.06
2023-04-02T10:20:19.605Z,101306.69
2023-04-02T10:25:24.412Z,101326.56
2023-04-02T10:30:28.698Z,101325.94
2023-04-02T10:36:00.346Z,101332.66
2023-04-02T10:41:23.870Z,101335.41
2023-04-02T10:46:37.124Z,101352.75
2023-04-02T10:51:54.371Z,101359.78
2023-04-02T10:57:18.992Z,101370.53
2023-04-02T11:02:41.814Z,101372.78
2023-04-02T11:07:55.412Z,101391.34
2023-04-02T11:13:05.888Z,101399.81
2023-04-02T11:18:22.366Z,101420.88
2023-04-02T11:23:28.714Z,101417.84
2023-04-02T11:28:32.123Z,101415.03
2023-04-02T11:33:45.575Z,101432.72
2023-04-02T11:38:52.349Z,101441.34
2023-04-02T11:44:01.191Z,101437.56
2023-04-02T11:49:40.845Z,101444.03
2023-04-02T11:54:44.357Z,101450.84
2023-04-02T11:59:56.609Z,101453.63
2023-04-02T12:05:40.018Z,101456.25
2023-04-02T12:10:53.809Z,101472.03
2023-04-02T12:16:01.337Z,101477.72
2023-04-02T12:21:03.204Z,101482.03
2023-04-02T12:26:07.817Z,101485.56
2023-04-02T12:31:09.467Z,101503.91
2023-04-02T12:36:14.401Z,101508.91
2023-04-02T12:41:24.303Z,101516.50
2023-04-02T12:46:27.008Z,101515.88
2023-04-02T12:51:28.709Z,101522.00
2023-04-02T12:56:30.538Z,101527.34
2023-04-02T13:01:32.370Z,101528.81
2023-04-02T13:06:35.689Z,101537.03
2023-04-02T13:11:41.515Z,101544.03
2023-04-02T13:16:43.212Z,101548.31
2023-04-02T13:21:45.572Z,101551.34
2023-04-02T13:26:48.530Z,101557.38
2023-04-02T13:31:51.739Z,101557.00
2023-04-02T13:36:53.745Z,101567.97
2023-04-02T13:42:01.246Z,101572.25
2023-04-02T13:47:02.897Z,101576.03
2023-04-02T13:52:04.762Z,101590.25
2023-04-02T13:57:06.573Z,101593.19
2023-04-02T14:02:20.229Z,101602.13
2023-04-02T14:07:55.259Z,101598.84
2023-04-02T14:13:17.804Z,101604.88
2023-04-02T14:18:40.173Z,101615.44
2023-04-02T14:24:24.796Z,101623.94
2023-04-02T14:29:46.404Z,101632.94
2023-04-02T14:35:07.453Z,101633.16
2023-04-02T14:40:49.085Z,101642.94
2023-04-02T14:45:53.338Z,101659.19
2023-04-02T14:51:15.851Z,101662.78
2023-04-02T14:56:19.610Z,101660.91
2023-04-02T15:01:33.719Z,101669.59
2023-04-02T15:06:47.351Z,101681.75
2023-04-02T15:11:53.772Z,101689.59
2023-04-02T15:16:59.718Z,101680.13
2023-04-02T15:22:29.165Z,101690.56
2023-04-02T15:28:09.004Z,101693.09
2023-04-02T15:33:53.016Z,101695.09
2023-04-02T15:39:10.141Z,101707.59
2023-04-02T15:44:15.932Z,101708.84
2023-04-02T15:49:29.996Z,101720.50
2023-04-02T15:54:45.904Z,101731.28
2023-04-02T16:00:22.930Z,101743.00
2023-04-02T16:05:42.094Z,101750.31
2023-04-02T16:10:43.739Z,101760.16
2023-04-02T16:15:58.016Z,101767.69
2023-04-02T16:21:02.780Z,101773.66
2023-04-02T16:26:29.453Z,101783.41
2023-04-02T16:31:49.344Z,101795.91
2023-04-02T16:37:08.573Z,101811.75
2023-04-02T16:42:18.601Z,101813.50
2023-04-02T16:47:26.411Z,101821.81
2023-04-02T16:52:51.589Z,101822.75
2023-04-02T16:58:28.795Z,101828.53
2023-04-02T17:03:58.659Z,101855.88
2023-04-02T17:09:24.012Z,101855.31
2023-04-02T17:14:30.320Z,101861.78
2023-04-02T17:19:32.957Z,101865.75
2023-04-02T17:24:42.486Z,101874.69
2023-04-02T17:29:48.977Z,101878.13
2023-04-02T17:34:51.447Z,101892.69
2023-04-02T17:40:19.222Z,101906.41
2023-04-02T17:45:39.581Z,101920.09
2023-04-02T17:50:53.547Z,101924.47
2023-04-02T17:56:07.286Z,101935.16
2023-04-02T18:01:24.686Z,101939.88
2023-04-02T18:07:14.226Z,101945.84
2023-04-02T18:12:23.868Z,101951.56
2023-04-02T18:17:44.123Z,101961.53
2023-04-02T18:23:07.506Z,101971.31
2023-04-02T18:28:17.759Z,101981.38
2023-04-02T18:33:20.516Z,101985.75
2023-04-02T18:38:43.130Z,101998.78
2023-04-02T18:43:50.368Z,101994.03
2023-04-02T18:49:05.707Z,102010.31
2023-04-02T18:54:18.259Z,102013.84
2023-04-02T18:59:44.683Z,102021.41
2023-04-02T19:04:57.947Z,102033.28
2023-04-02T19:10:08.813Z,102041.28
2023-04-02T19:15:17.596Z,102056.88
2023-04-02T19:20:30.612Z,102064.81
2023-04-02T19:25:38.507Z,102066.81
2023-04-02T19:31:09.328Z,102073.94
2023-04-02T19:36:19.251Z,102086.25
2023-04-02T19:41:38.975Z,102089.66
2023-04-02T19:46:41.289Z,102093.31
2023-04-02T19:51:43.810Z,102093.19
2023-04-02T19:56:45.727Z,102106.97
2023-04-02T20:01:47.553Z,102100.66
2023-04-02T20:06:49.190Z,102111.69
2023-04-02T20:11:50.818Z,102122.59
2023-04-02T20:16:52.782Z,102126.06
2023-04-02T20:21:54.593Z,102127.31
2023-04-02T20:26:56.175Z,102135.41
2023-04-02T20:31:57.906Z,102138.41
2023-04-02T20:36:59.619Z,102147.81
2023-04-02T20:42:01.264Z,102146.03
2023-04-02T20:47:02.872Z,102155.53
2023-04-02T20:52:04.598Z,102153.66
2023-04-02T20:57:06.173Z,102160.50
2023-04-02T21:02:11.883Z,102165.47
2023-04-02T21:07:13.437Z,102169.13
2023-04-02T21:12:14.980Z,102179.25
2023-04-02T21:17:16.823Z,102170.41
2023-04-02T21:22:18.417Z,102172.94
2023-04-02T21:27:20.099Z,102170.44
2023-04-02T21:32:22.331Z,102169.16
2023-04-02T21:37:24.212Z,102175.59
2023-04-02T21:42:26.106Z,102172.78
2023-04-02T21:47:27.690Z,102174.25
2023-04-02T21:52:29.790Z,102174.47
2023-04-02T21:57:31.505Z,102168.56
2023-04-02T22:02:33.402Z,102184.47
2023-04-02T22:07:35.086Z,102185.91
2023-04-02T22:12:37.023Z,102193.34
2023-04-02T22:17:38.684Z,102185.97
2023-04-02T22:22:40.474Z,102199.44
2023-04-02T22:27:42.172Z,102192.59
2023-04-02T22:32:45.342Z,102195.06
2023-04-02T22:37:48.377Z,102204.72
2023-04-02T22:42:50.814Z,102216.84
2023-04-02T22:47:53.149Z,102212.09
2023-04-02T22:52:55.093Z,102221.44
2023-04-02T22:57:56.773Z,102227.69
2023-04-02T23:02:58.851Z,102230.56
2023-04-02T23:08:00.696Z,102233.56
2023-04-02T23:13:02.276Z,102243.41
2023-04-02T23:18:04.837Z,102232.84
2023-04-02T23:23:06.916Z,102236.94
2023-04-02T23:28:10.456Z,102243.69
2023-04-02T23:33:12.276Z,102246.44
2023-04-02T23:38:15.065Z,102249.09
2023-04-02T23:43:17.081Z,102245.22
2023-04-02T23:48:19.697Z,102238.94
2023-04-02T23:53:21.572Z,102248.00
2023-04-02T23:58:23.681Z,102245.44
